Terminal Aerodrome Forecast
Issued by NWS

Home | Current Version | Previous Version | Text Only | Print | Product List | Glossary On
Versions: 1 2 3 4 5 6 7 8 9 10 11 12 13 14 15 16 17
000
FTUS44 KEWX 152300
TAFSSF
TAF
KSSF 152340Z 1600/1624 10007KT P6SM SCT050 SCT250
     FM160700 VRB04KT P6SM BKN025
     FM160900 VRB03KT P6SM BKN015
     FM161700 10005KT P6SM BKN035 PROB30 1620/1624 VRB20G30KT 5SM
      TSRA BKN030CB=

USA.gov is the U.S. government's official web portal to all federal, state and local government web resources and services.